Hauptseite
METAR-TAF:

METAR-TAF

Flughäfen :

Fliegerhorst Nörvenich

Nörvenich, Deutschland

Breite: 50-50N, Länge: 006-40E, Höhe: 118 m

Beobachtung

Neuester Wetterbericht von vor 21 Minuten, um 18:20 UTC
Wind 4 kt aus Ost
Temperatur 30°C
Luftfeuchtigkeit 24%
Luftdruck 1018 hPa
Sichtweite 10 km oder mehr
Leicht bewölkt in der Höhe von 32000 ft

METAR: ETNN 061820Z 08004KT 9999 FEW320 30/07 Q1018 BLU+

Zeit: 20:41 (18:41 UTC)

Prognose

Neuester Wetterbericht von vor 5 Stunden und 30 Minuten, um 13:11 UTC
Gültige Prognose vom 06 um 14 UTC bis 06 um 23 UTC
Wind 6 kt aus Ost/Südost
Sichtweite 10 km oder mehr
Aufgelockert bewölkt in der Höhe von 30000 ft

TAF: ETNN 061311Z 0614/0623 11006KT 9999 NSW SCT300 BY ETGL

Wetterbeobachtungen und Prognosen von mehr als 4000 Flughäfen (METAR und TAF Bericht).

Die verfügbaren Stationen werden durch gelbe und rote Markierungen auf der Karte dargestellt.

Führen Sie die Maus auf sie, um den Namen der Station zu sehen.

Darauf klicken, um die Beobachtung von Wetterbeobachtungen und Prognosen zu sehen.

Um die Karte zu ändern : klicken Sie auf den grünen Tasten mit einem schwarzen Kreuz Zum Vergrößern, auf den grünen Button mit einem Gedankenstrich zu verkleinern, oder auf die grünen Pfeile für benachbarte Karten.


METAR-TAF: